Time;durP1;ratioP1;P1;durP2;ratioP2;P2;SDS_P1;SDS_P2;PMS_P1;PMS_P2;Temp;Humidity;BMP_temperature;BMP_pressure;BME280_temperature;BME280_humidity;BME280_pressure;Samples;Min_cycle;Max_cycle;Signal;HPM_P1;HPM_P2
2022/06/19 00:01:18;;;;;;;13.57;8.55;;;;;;;23.53;62.67;98284.84;5066421;28;20037;-78
2022/06/19 00:03:49;;;;;;;14.68;8.82;;;;;;;23.44;63.12;98267.03;5071384;28;20033;-79
2022/06/19 00:06:16;;;;;;;16.40;8.80;;;;;;;23.47;62.74;98264.44;5074601;28;20036;-78
2022/06/19 00:08:42;;;;;;;20.00;9.23;;;;;;;23.45;63.21;98285.78;5065575;28;20025;-79
2022/06/19 00:11:11;;;;;;;16.25;9.65;;;;;;;23.00;65.27;98274.28;5074295;28;20432;-78
2022/06/19 00:13:37;;;;;;;18.75;9.43;;;;;;;23.16;64.28;98277.09;5057912;28;20040;-79
2022/06/19 00:16:03;;;;;;;15.02;8.25;;;;;;;23.24;63.86;98262.56;5072708;28;20055;-79
2022/06/19 00:18:29;;;;;;;17.55;9.25;;;;;;;23.35;63.53;98261.75;5071735;28;20028;-79
2022/06/19 00:20:55;;;;;;;19.88;9.15;;;;;;;23.33;63.65;98253.13;5073058;28;20035;-79
2022/06/19 00:23:20;;;;;;;13.10;8.50;;;;;;;23.33;63.60;98255.84;5073758;28;20468;-79
2022/06/19 00:25:46;;;;;;;15.00;9.32;;;;;;;23.31;63.75;98251.84;5071400;28;20029;-79
2022/06/19 00:28:11;;;;;;;11.45;9.30;;;;;;;23.22;63.94;98251.22;5073217;28;20031;-79
2022/06/19 00:30:37;;;;;;;17.48;9.23;;;;;;;23.29;63.79;98241.31;5068216;28;20028;-79
2022/06/19 00:33:03;;;;;;;14.07;9.70;;;;;;;23.17;63.89;98235.94;5075230;28;20024;-77
2022/06/19 00:35:29;;;;;;;13.88;9.07;;;;;;;23.10;64.26;98225.63;5066560;28;20029;-78
2022/06/19 00:37:56;;;;;;;16.30;9.50;;;;;;;23.15;64.09;98218.34;5068993;28;20111;-77
2022/06/19 00:40:22;;;;;;;14.23;10.48;;;;;;;22.96;64.68;98213.50;5073632;28;20032;-78
2022/06/19 00:42:48;;;;;;;11.52;8.93;;;;;;;23.15;63.99;98210.97;5067710;28;20031;-78
2022/06/19 00:45:31;;;;;;;18.85;9.43;;;;;;;22.90;64.17;98223.84;5102716;28;20040;-78
2022/06/19 00:47:59;;;;;;;16.90;9.48;;;;;;;22.97;64.29;98209.66;5068421;28;20428;-78
2022/06/19 00:50:32;;;;;;;15.15;9.23;;;;;;;22.96;64.33;98217.03;5103577;28;20123;-78
2022/06/19 00:52:59;;;;;;;17.60;10.43;;;;;;;22.83;64.68;98203.78;5067248;28;20032;-78
2022/06/19 00:55:32;;;;;;;17.50;9.73;;;;;;;22.84;64.76;98208.09;5068823;28;20040;-78
2022/06/19 00:58:03;;;;;;;17.35;9.68;;;;;;;22.87;64.54;98200.03;5063485;28;20040;-77
2022/06/19 01:00:30;;;;;;;16.30;10.20;;;;;;;22.91;64.69;98203.66;5067944;28;20051;-78
2022/06/19 01:03:05;;;;;;;14.32;9.70;;;;;;;22.84;64.71;98192.56;5069041;28;20411;-78
2022/06/19 01:05:32;;;;;;;14.93;9.43;;;;;;;22.82;64.64;98188.59;5067132;28;20031;-78
2022/06/19 01:08:00;;;;;;;17.27;9.75;;;;;;;22.80;64.57;98183.50;5070775;28;20480;-77
2022/06/19 01:10:25;;;;;;;11.52;9.00;;;;;;;22.76;64.88;98181.81;5068744;28;20050;-77
2022/06/19 01:12:51;;;;;;;16.35;9.20;;;;;;;22.53;65.27;98176.06;5069519;28;20016;-77
2022/06/19 01:15:21;;;;;;;13.75;8.23;;;;;;;22.51;65.24;98169.38;5070758;28;20036;-77
2022/06/19 01:17:49;;;;;;;15.95;9.35;;;;;;;22.51;65.38;98172.09;5070626;28;20481;-78
2022/06/19 01:20:15;;;;;;;16.02;9.52;;;;;;;22.43;65.42;98170.28;5068436;28;20044;-78
2022/06/19 01:22:50;;;;;;;19.38;9.63;;;;;;;22.45;65.44;98159.84;5072700;28;20477;-78
2022/06/19 01:25:31;;;;;;;17.23;9.13;;;;;;;22.38;65.55;98149.56;5072656;28;20463;-78
2022/06/19 01:30:47;;;;;;;15.65;9.57;;;;;;;22.34;65.66;98154.09;5072346;28;20397;-78
2022/06/19 01:33:17;;;;;;;16.38;9.77;;;;;;;22.24;65.93;98144.47;5067954;28;20496;-78
2022/06/19 01:35:46;;;;;;;18.48;10.25;;;;;;;22.37;65.70;98145.25;5082468;28;20178;-77
2022/06/19 01:38:15;;;;;;;16.35;9.18;;;;;;;22.39;65.51;98141.03;5063549;28;20025;-77
2022/06/19 01:40:45;;;;;;;17.40;10.48;;;;;;;22.46;65.49;98132.31;5067416;28;20033;-77
2022/06/19 01:43:11;;;;;;;15.80;9.75;;;;;;;22.38;65.85;98127.81;5064353;28;20161;-76
2022/06/19 01:45:44;;;;;;;20.33;10.88;;;;;;;22.27;66.06;98127.47;5065632;28;20116;-76
2022/06/19 01:48:10;;;;;;;15.20;9.20;;;;;;;22.29;65.99;98122.50;5063912;28;20105;-77
2022/06/19 01:50:35;;;;;;;16.40;9.10;;;;;;;22.23;66.11;98113.00;5097123;28;20103;-76
2022/06/19 01:53:13;;;;;;;16.33;9.32;;;;;;;22.23;66.16;98101.31;5067828;28;20046;-77
2022/06/19 01:55:39;;;;;;;16.17;9.80;;;;;;;22.11;66.62;98095.88;5066379;28;20036;-80
2022/06/19 01:58:06;;;;;;;15.10;9.82;;;;;;;22.18;66.12;98093.38;5071848;28;20089;-77
2022/06/19 02:00:34;;;;;;;18.00;10.02;;;;;;;22.20;66.07;98086.47;5069410;28;20025;-77
2022/06/19 02:03:16;;;;;;;20.00;10.98;;;;;;;22.07;66.52;98084.09;5064562;28;20039;-76
2022/06/19 02:05:42;;;;;;;15.80;9.25;;;;;;;22.03;66.61;98085.94;5064681;28;20498;-77
2022/06/19 02:08:09;;;;;;;18.60;10.00;;;;;;;22.04;66.41;98080.16;5072951;28;20032;-79
2022/06/19 02:10:40;;;;;;;12.27;9.35;;;;;;;22.01;66.25;98072.69;5072785;28;20349;-78
2022/06/19 02:13:07;;;;;;;16.98;10.07;;;;;;;22.04;66.24;98074.72;5072720;28;20111;-78
2022/06/19 02:15:32;;;;;;;15.93;9.75;;;;;;;22.03;66.20;98066.91;5069341;28;20032;-79
2022/06/19 02:18:00;;;;;;;13.75;9.45;;;;;;;21.92;66.44;98055.72;5073163;28;20050;-78
2022/06/19 02:20:26;;;;;;;21.20;9.52;;;;;;;21.91;66.59;98064.97;5070456;28;20127;-78
2022/06/19 02:22:51;;;;;;;13.35;9.43;;;;;;;21.70;67.11;98066.22;5074835;28;20111;-77
2022/06/19 02:25:17;;;;;;;16.40;9.82;;;;;;;21.70;66.99;98064.28;5069291;28;20504;-78
2022/06/19 02:27:42;;;;;;;15.00;9.52;;;;;;;21.78;66.74;98068.00;5101557;28;20060;-78
2022/06/19 02:30:10;;;;;;;16.60;9.60;;;;;;;21.79;66.53;98050.59;5102072;28;20063;-77
2022/06/19 02:32:48;;;;;;;13.52;8.98;;;;;;;21.80;66.64;98058.38;5071779;28;20028;-77
2022/06/19 02:35:20;;;;;;;22.20;9.27;;;;;;;21.74;66.42;98051.59;5079878;22;20127;-78
2022/06/19 02:37:50;;;;;;;15.30;9.40;;;;;;;21.77;66.66;98061.00;5035116;28;20030;-78
2022/06/19 02:40:21;;;;;;;14.75;9.52;;;;;;;21.71;66.71;98065.09;5041073;28;20044;-78
2022/06/19 02:42:48;;;;;;;11.23;9.43;;;;;;;21.71;66.60;98062.38;5040603;28;20485;-78
2022/06/19 02:45:26;;;;;;;16.95;9.25;;;;;;;21.69;66.64;98053.78;5024256;28;20035;-78
2022/06/19 02:47:55;;;;;;;13.35;8.57;;;;;;;21.63;66.52;98056.72;5027894;28;20188;-78
2022/06/19 02:50:25;;;;;;;16.13;8.65;;;;;;;21.50;66.54;98049.69;5028387;28;20107;-78
2022/06/19 02:52:51;;;;;;;16.05;8.43;;;;;;;21.48;66.72;98034.84;5028376;28;20031;-78
2022/06/19 02:55:18;;;;;;;16.33;8.75;;;;;;;21.43;66.82;98038.59;5023517;28;20027;-78
2022/06/19 02:57:43;;;;;;;14.70;8.00;;;;;;;21.44;66.55;98036.66;5024752;28;20034;-78
2022/06/19 03:00:15;;;;;;;16.88;9.13;;;;;;;21.45;66.53;98043.66;5021618;28;20029;-78
2022/06/19 03:02:41;;;;;;;17.90;8.27;;;;;;;21.50;65.96;98046.16;5022250;28;20061;-78
2022/06/19 03:05:14;;;;;;;18.63;7.43;;;;;;;21.39;66.09;98050.47;5024190;28;20128;-78
2022/06/19 03:07:40;;;;;;;21.58;8.50;;;;;;;21.51;65.90;98058.63;5024300;28;20392;-78
2022/06/19 03:10:06;;;;;;;11.57;7.90;;;;;;;21.38;66.30;98043.47;5027410;28;20048;-78
2022/06/19 03:12:31;;;;;;;12.30;8.32;;;;;;;21.50;65.79;98046.16;5025152;28;20033;-78
2022/06/19 03:14:57;;;;;;;12.95;7.90;;;;;;;21.51;65.53;98039.63;5023981;28;20029;-78
2022/06/19 03:17:22;;;;;;;17.45;7.35;;;;;;;21.42;65.45;98045.16;5039993;28;20075;-78
2022/06/19 03:19:48;;;;;;;15.23;7.97;;;;;;;21.39;65.43;98039.59;5027295;28;20412;-78
2022/06/19 03:22:14;;;;;;;15.45;7.78;;;;;;;21.22;65.71;98035.19;5026480;28;20025;-78
2022/06/19 03:24:40;;;;;;;16.75;7.55;;;;;;;21.35;65.30;98033.28;5025260;28;20470;-78
2022/06/19 03:27:06;;;;;;;18.50;7.93;;;;;;;21.48;65.05;98030.22;5023965;28;20452;-78
2022/06/19 03:29:32;;;;;;;18.33;8.60;;;;;;;21.34;65.54;98032.47;5024713;28;20032;-78
2022/06/19 03:31:58;;;;;;;19.05;7.18;;;;;;;21.37;65.54;98025.56;5025160;28;20029;-78
2022/06/19 03:34:23;;;;;;;15.45;7.30;;;;;;;21.40;64.97;98020.28;5023051;28;20045;-78
2022/06/19 03:36:49;;;;;;;15.30;6.80;;;;;;;21.40;65.23;98011.34;5022547;28;20120;-78
2022/06/19 03:39:14;;;;;;;20.58;7.53;;;;;;;21.32;65.36;98007.59;5025879;28;20401;-78
2022/06/19 03:41:40;;;;;;;18.88;7.47;;;;;;;21.36;65.07;98002.28;5026223;28;20038;-78
2022/06/19 03:44:06;;;;;;;13.85;6.70;;;;;;;21.43;64.56;97987.00;5024875;28;20037;-78
2022/06/19 03:46:32;;;;;;;14.85;6.32;;;;;;;21.41;64.44;97988.47;5022188;28;20045;-78
2022/06/19 03:48:58;;;;;;;11.75;6.65;;;;;;;21.43;64.47;97991.63;5027061;28;20420;-79
2022/06/19 03:51:23;;;;;;;17.40;6.53;;;;;;;21.44;64.31;97993.22;5022146;28;20029;-78
2022/06/19 03:53:54;;;;;;;18.30;6.65;;;;;;;21.41;64.24;97989.25;5029071;28;20473;-78
2022/06/19 03:56:27;;;;;;;16.13;6.88;;;;;;;21.46;64.33;97986.34;5025230;28;20026;-78
2022/06/19 03:58:54;;;;;;;14.77;6.32;;;;;;;21.51;64.06;97982.59;5037917;28;20033;-78
2022/06/19 04:01:33;;;;;;;17.70;6.60;;;;;;;21.45;64.05;97970.34;5039149;28;20045;-78
2022/06/19 04:03:59;;;;;;;16.95;6.43;;;;;;;21.48;63.88;97983.25;5025694;28;20038;-78
2022/06/19 04:06:27;;;;;;;13.82;6.32;;;;;;;21.50;63.79;97987.22;5023775;28;20038;-78
2022/06/19 04:08:53;;;;;;;15.38;6.53;;;;;;;21.40;63.94;97987.69;5026813;28;20047;-78
2022/06/19 04:11:20;;;;;;;13.23;6.35;;;;;;;21.37;64.09;97987.56;5009319;28;20113;-78
2022/06/19 04:13:46;;;;;;;20.58;6.00;;;;;;;21.28;63.95;97984.97;5027232;28;20033;-78
2022/06/19 04:16:21;;;;;;;13.80;6.20;;;;;;;21.50;63.41;97994.56;5021841;28;20370;-78
2022/06/19 04:18:48;;;;;;;14.85;6.18;;;;;;;21.51;63.30;97977.16;5040970;28;20053;-78
2022/06/19 04:21:16;;;;;;;13.32;5.47;;;;;;;21.42;63.54;97984.63;5007771;28;20409;-78
2022/06/19 04:23:42;;;;;;;14.68;5.55;;;;;;;21.55;63.29;97980.78;5024863;28;20033;-78
2022/06/19 04:26:09;;;;;;;13.77;6.07;;;;;;;21.63;63.03;97972.50;5038794;28;20516;-78
2022/06/19 04:28:35;;;;;;;13.95;6.00;;;;;;;21.64;63.03;97973.31;5040755;28;20021;-78
2022/06/19 04:31:01;;;;;;;14.50;5.75;;;;;;;21.70;62.94;97971.94;5024620;28;20025;-78
2022/06/19 04:33:26;;;;;;;19.27;5.88;;;;;;;21.82;62.60;97979.28;4989441;28;20041;-79
2022/06/19 04:35:51;;;;;;;18.05;5.25;;;;;;;21.90;62.40;97979.19;5003335;28;20030;-78
2022/06/19 04:38:17;;;;;;;12.13;5.97;;;;;;;21.92;62.32;97987.78;5005705;28;20087;-78
2022/06/19 04:40:43;;;;;;;18.00;5.78;;;;;;;21.93;62.60;97992.06;5023145;28;20041;-78
2022/06/19 04:43:10;;;;;;;17.60;5.07;;;;;;;21.76;64.27;97977.91;5008913;28;20489;-78
2022/06/19 04:45:35;;;;;;;15.32;6.72;;;;;;;21.87;63.02;97966.25;5024597;28;20029;-78
2022/06/19 04:48:00;;;;;;;24.00;6.80;;;;;;;22.00;63.19;97969.75;5007608;28;20040;-78
2022/06/19 04:50:26;;;;;;;12.95;5.93;;;;;;;22.03;62.29;97953.56;5023656;28;20045;-78
2022/06/19 04:52:51;;;;;;;14.30;5.50;;;;;;;22.15;62.34;97964.38;5019593;28;20374;-78
2022/06/19 04:55:18;;;;;;;19.83;5.95;;;;;;;22.21;62.15;97965.69;5024418;28;20029;-78
2022/06/19 04:57:44;;;;;;;20.58;5.95;;;;;;;22.16;62.11;97970.59;5022637;28;20369;-78
2022/06/19 05:00:13;;;;;;;13.60;5.85;;;;;;;22.38;61.29;97957.28;5038398;28;20030;-78
2022/06/19 05:02:39;;;;;;;12.48;5.70;;;;;;;22.56;60.96;97962.41;5022827;28;20033;-78
2022/06/19 05:05:05;;;;;;;13.10;6.05;;;;;;;22.54;62.64;97951.06;5022299;28;20037;-78
2022/06/19 05:07:32;;;;;;;17.67;5.60;;;;;;;22.70;60.78;97943.75;5018864;28;20029;-78
2022/06/19 05:09:57;;;;;;;14.75;5.43;;;;;;;22.70;61.59;97944.53;5022868;28;20037;-78
2022/06/19 05:12:23;;;;;;;14.55;6.50;;;;;;;22.80;60.52;97946.75;4986828;28;20041;-78
2022/06/19 05:14:49;;;;;;;24.45;6.15;;;;;;;22.82;60.91;97941.75;5023910;28;20033;-78
2022/06/19 05:17:14;;;;;;;11.85;5.38;;;;;;;22.96;59.97;97941.31;5023703;28;20140;-78
2022/06/19 05:19:41;;;;;;;30.25;7.18;;;;;;;23.02;60.17;97946.13;4990522;28;20052;-78
2022/06/19 05:22:07;;;;;;;13.30;5.40;;;;;;;23.01;60.03;97939.13;5022325;28;20733;-78
2022/06/19 05:24:32;;;;;;;17.75;5.82;;;;;;;22.97;60.79;97929.28;5023587;28;20489;-78
2022/06/19 05:26:58;;;;;;;17.98;5.60;;;;;;;23.12;59.96;97928.50;5019587;28;20464;-78
2022/06/19 05:29:23;;;;;;;14.40;5.28;;;;;;;23.26;59.35;97915.22;5022922;28;20068;-78
2022/06/19 05:31:49;;;;;;;11.57;4.90;;;;;;;23.24;59.72;97928.38;5006895;28;20040;-78
2022/06/19 05:34:15;;;;;;;17.55;5.30;;;;;;;23.35;59.60;97934.91;5024239;28;20056;-78
2022/06/19 05:36:40;;;;;;;9.07;4.63;;;;;;;23.30;59.68;97918.03;5039387;28;20033;-78
2022/06/19 05:39:06;;;;;;;16.83;5.53;;;;;;;23.36;59.62;97914.72;5021412;28;20095;-78
2022/06/19 05:41:32;;;;;;;12.65;5.38;;;;;;;23.53;59.17;97906.16;5021825;28;20030;-78
2022/06/19 05:43:57;;;;;;;14.77;4.32;;;;;;;23.57;59.14;97895.31;5024786;28;20033;-78
2022/06/19 05:46:23;;;;;;;13.45;5.70;;;;;;;23.70;58.67;97922.09;5006657;28;20042;-78
2022/06/19 05:48:51;;;;;;;10.05;4.35;;;;;;;23.78;58.48;97915.66;5021591;28;20441;-79
2022/06/19 05:51:23;;;;;;;18.45;5.15;;;;;;;23.83;58.87;97920.00;5024491;28;20064;-78
2022/06/19 05:53:51;;;;;;;10.77;4.32;;;;;;;23.88;58.23;97902.59;5023012;28;20041;-78
2022/06/19 05:56:17;;;;;;;17.98;4.85;;;;;;;23.96;58.29;97896.16;5022314;28;20033;-78
2022/06/19 05:58:43;;;;;;;17.40;5.35;;;;;;;23.99;59.18;97903.59;5026259;28;20029;-78
2022/06/19 06:01:10;;;;;;;20.95;5.95;;;;;;;24.09;58.98;97889.44;5011756;28;20053;-78
2022/06/19 06:03:36;;;;;;;12.15;4.85;;;;;;;24.21;57.56;97900.19;5008551;28;20041;-78
2022/06/19 06:06:04;;;;;;;11.85;4.53;;;;;;;24.19;57.12;97877.94;5024936;28;20255;-78
2022/06/19 06:08:30;;;;;;;9.63;4.40;;;;;;;24.32;57.12;97890.25;5007131;28;20524;-78
2022/06/19 06:10:56;;;;;;;11.10;5.07;;;;;;;24.29;56.90;97875.41;5026413;28;20037;-78
2022/06/19 06:13:21;;;;;;;16.05;4.88;;;;;;;24.38;56.99;97897.78;5020544;28;20067;-78
2022/06/19 06:15:48;;;;;;;18.92;6.40;;;;;;;24.41;57.69;97907.19;5027744;28;20037;-78
2022/06/19 06:18:14;;;;;;;16.48;4.57;;;;;;;24.44;57.91;97890.88;5025241;28;20033;-79
2022/06/19 06:20:40;;;;;;;17.88;5.50;;;;;;;24.61;59.10;97894.31;5028347;28;20040;-79
2022/06/19 06:23:05;;;;;;;20.35;5.15;;;;;;;24.73;57.76;97907.75;5025496;28;20042;-78
2022/06/19 06:25:31;;;;;;;18.38;4.93;;;;;;;24.76;58.42;97891.50;5010244;28;20041;-78
2022/06/19 06:27:56;;;;;;;13.70;4.93;;;;;;;24.86;56.84;97890.88;5021360;28;20040;-78
2022/06/19 06:30:22;;;;;;;17.50;5.00;;;;;;;24.81;56.26;97883.00;5025807;28;20044;-78
2022/06/19 06:32:47;;;;;;;18.73;5.00;;;;;;;24.83;55.93;97899.00;5010161;28;20049;-79
2022/06/19 06:35:12;;;;;;;15.07;4.65;;;;;;;25.00;54.55;97904.78;5026283;28;20033;-78
2022/06/19 06:37:38;;;;;;;15.93;4.35;;;;;;;25.03;54.65;97893.09;5005551;28;20037;-78
2022/06/19 06:40:06;;;;;;;17.23;4.90;;;;;;;25.08;54.20;97895.53;5026197;28;20032;-79
2022/06/19 06:42:32;;;;;;;13.02;4.28;;;;;;;25.08;53.89;97892.78;5025958;28;20037;-78
2022/06/19 06:44:57;;;;;;;17.13;4.80;;;;;;;25.04;53.97;97882.97;5024465;28;20041;-78
2022/06/19 06:47:22;;;;;;;12.57;5.07;;;;;;;25.33;52.82;97878.72;5025449;28;20034;-78
2022/06/19 06:49:50;;;;;;;14.40;5.13;;;;;;;25.57;52.42;97886.53;5043065;28;20137;-78
2022/06/19 06:52:16;;;;;;;14.43;4.47;;;;;;;25.46;52.94;97877.38;5040207;28;20025;-78
2022/06/19 06:54:42;;;;;;;12.85;4.32;;;;;;;25.56;52.34;97874.00;5027306;28;21266;-78
2022/06/19 06:57:08;;;;;;;16.63;4.57;;;;;;;25.70;51.64;97866.00;5024668;28;20029;-78
2022/06/19 06:59:34;;;;;;;20.02;5.28;;;;;;;25.63;52.80;97874.09;5026741;28;20048;-78
2022/06/19 07:02:00;;;;;;;19.80;5.22;;;;;;;25.75;51.71;97874.66;5028006;28;20112;-78
2022/06/19 07:04:26;;;;;;;19.15;5.72;;;;;;;25.76;53.86;97861.78;5028219;28;20140;-78
2022/06/19 07:06:51;;;;;;;19.40;5.07;;;;;;;25.67;51.50;97872.19;5026033;28;20033;-79
2022/06/19 07:09:17;;;;;;;20.75;4.82;;;;;;;25.71;51.32;97873.03;5022235;28;20064;-78
2022/06/19 07:11:46;;;;;;;22.63;5.90;;;;;;;25.69;51.76;97872.63;5024686;28;20022;-79
2022/06/19 07:14:12;;;;;;;17.45;4.97;;;;;;;25.52;51.38;97871.22;5026827;28;20410;-78
2022/06/19 07:16:40;;;;;;;17.08;5.07;;;;;;;25.89;50.99;97865.84;5024289;28;20405;-79
2022/06/19 07:19:06;;;;;;;14.85;4.40;;;;;;;25.88;50.86;97867.03;5022982;28;20025;-78
2022/06/19 07:21:31;;;;;;;15.70;5.47;;;;;;;26.09;51.18;97864.56;5025490;28;20091;-79
2022/06/19 07:23:57;;;;;;;13.00;4.85;;;;;;;26.00;50.86;97872.22;5019923;28;21128;-79
2022/06/19 07:26:24;;;;;;;15.05;4.57;;;;;;;25.95;51.10;97884.28;5026092;28;20028;-78
2022/06/19 07:28:50;;;;;;;8.50;4.25;;;;;;;25.79;50.30;97867.31;5026733;28;20061;-78
2022/06/19 07:31:15;;;;;;;15.77;5.57;;;;;;;25.96;51.39;97869.47;5007918;28;20031;-78
2022/06/19 07:33:41;;;;;;;18.05;5.90;;;;;;;26.01;51.58;97851.94;5019697;28;20029;-78
2022/06/19 07:36:11;;;;;;;21.95;6.13;;;;;;;26.13;50.47;97859.91;5009053;28;20071;-78
2022/06/19 07:38:37;;;;;;;14.93;5.35;;;;;;;26.24;50.29;97863.53;5040023;28;20041;-78
2022/06/19 07:41:02;;;;;;;19.80;5.15;;;;;;;26.19;50.24;97850.19;5018773;28;20049;-78
2022/06/19 07:43:28;;;;;;;16.60;5.85;;;;;;;26.28;50.55;97864.38;5024735;28;20045;-78
2022/06/19 07:45:53;;;;;;;17.10;6.38;;;;;;;26.23;50.26;97862.00;5028162;28;20485;-78
2022/06/19 07:51:03;;;;;;;19.80;5.70;;;;;;;26.12;50.51;97852.88;5025927;28;20323;-78
2022/06/19 07:53:28;;;;;;;18.55;5.47;;;;;;;26.30;50.19;97847.59;5024602;28;20029;-78
2022/06/19 07:55:54;;;;;;;15.40;5.75;;;;;;;26.41;50.47;97867.63;5025207;28;20543;-78
2022/06/19 07:58:19;;;;;;;14.10;5.30;;;;;;;26.66;49.83;97855.75;5021668;28;20025;-78
2022/06/19 08:00:44;;;;;;;22.55;5.78;;;;;;;26.63;50.30;97863.94;5025864;28;20453;-78
2022/06/19 08:03:10;;;;;;;23.52;6.10;;;;;;;26.87;49.63;97870.81;5020356;28;20038;-78
2022/06/19 08:05:37;;;;;;;14.68;6.05;;;;;;;27.03;50.72;97871.34;5024420;28;20388;-79
2022/06/19 08:08:07;;;;;;;16.10;6.15;;;;;;;27.04;49.60;97887.38;5023925;28;20104;-78
2022/06/19 08:10:36;;;;;;;12.90;5.53;;;;;;;26.71;49.92;97871.06;5023000;28;20477;-78
2022/06/19 08:13:02;;;;;;;20.75;6.35;;;;;;;26.80;49.54;97895.41;5020023;28;20493;-78
2022/06/19 08:15:29;;;;;;;15.50;6.13;;;;;;;26.93;50.13;97893.97;5021345;28;20051;-79
2022/06/19 08:17:54;;;;;;;26.40;7.38;;;;;;;27.00;49.52;97888.53;5022087;28;20033;-79
2022/06/19 08:20:21;;;;;;;13.68;5.88;;;;;;;26.83;49.71;97900.13;5003179;28;20103;-78
2022/06/19 08:22:46;;;;;;;20.00;6.72;;;;;;;26.84;49.29;97890.75;5020245;28;20045;-79
2022/06/19 08:25:14;;;;;;;21.20;6.72;;;;;;;26.99;49.43;97898.72;5023483;28;20021;-78
2022/06/19 08:27:42;;;;;;;18.95;6.18;;;;;;;26.96;49.44;97888.50;5027989;28;20401;-78
2022/06/19 08:30:13;;;;;;;15.77;6.18;;;;;;;27.02;49.54;97892.47;5023805;28;20113;-78
2022/06/19 08:32:38;;;;;;;13.52;6.70;;;;;;;26.89;49.58;97909.59;5029534;28;20056;-78
2022/06/19 08:35:04;;;;;;;18.38;6.78;;;;;;;26.95;49.49;97910.81;5012752;28;20104;-78
2022/06/19 08:37:32;;;;;;;15.95;6.72;;;;;;;27.16;49.07;97911.75;5010799;28;20496;-78
2022/06/19 08:39:57;;;;;;;19.33;6.57;;;;;;;27.06;48.98;97898.78;5022048;28;20029;-78
2022/06/19 08:42:48;;;;;;;17.80;6.40;;;;;;;27.26;48.91;97900.09;5025256;28;20040;-78
2022/06/19 08:45:43;;;;;;;14.07;6.32;;;;;;;27.31;49.70;97887.97;5025693;28;20049;-78
2022/06/19 08:48:39;;;;;;;21.73;7.47;;;;;;;27.18;49.15;97900.41;5022399;28;20098;-78
2022/06/19 08:51:23;;;;;;;22.92;6.90;;;;;;;27.34;49.29;97909.16;5020988;28;20049;-78
2022/06/19 08:54:09;;;;;;;19.80;7.68;;;;;;;27.41;49.98;97906.50;5041135;28;20037;-78
2022/06/19 08:56:43;;;;;;;26.83;8.02;;;;;;;27.45;50.17;97907.31;5036968;28;20147;-78
2022/06/19 08:59:43;;;;;;;16.98;6.10;;;;;;;27.66;48.21;97914.88;5040138;28;20056;-78
2022/06/19 09:02:36;;;;;;;17.13;6.13;;;;;;;27.98;48.59;97918.63;5022753;28;20112;-79
2022/06/19 09:05:40;;;;;;;12.52;6.18;;;;;;;27.69;48.79;97917.66;5026765;28;20068;-78
2022/06/19 09:08:34;;;;;;;18.30;6.53;;;;;;;27.93;49.47;97907.97;5039503;28;20022;-78
2022/06/19 09:11:21;;;;;;;17.55;5.85;;;;;;;28.13;48.29;97907.28;5022302;28;20034;-79
2022/06/19 09:13:55;;;;;;;19.55;6.35;;;;;;;28.27;47.96;97912.03;5024567;28;20033;-78
2022/06/19 09:16:38;;;;;;;18.00;6.20;;;;;;;28.42;48.05;97901.91;5040667;28;20516;-79
2022/06/19 09:19:29;;;;;;;14.50;6.35;;;;;;;28.53;47.82;97903.47;5024916;28;20025;-79
2022/06/19 09:22:05;;;;;;;21.77;7.72;;;;;;;28.51;47.93;97903.09;5021531;28;20075;-79
2022/06/19 09:25:15;;;;;;;21.88;7.05;;;;;;;28.57;48.03;97941.97;5042968;28;20041;-79
2022/06/19 09:27:50;;;;;;;21.92;7.40;;;;;;;28.67;48.68;97953.00;5020617;28;20041;-79
2022/06/19 09:30:42;;;;;;;15.65;6.93;;;;;;;28.72;47.67;97932.59;5023518;28;20029;-78
2022/06/19 09:33:17;;;;;;;17.67;7.00;;;;;;;28.81;48.48;97955.00;5018672;28;20120;-78
2022/06/19 09:35:48;;;;;;;15.23;7.45;;;;;;;28.97;48.71;97996.59;5027468;28;20039;-78
2022/06/19 09:38:20;;;;;;;15.27;6.47;;;;;;;28.92;49.16;97994.22;5007879;28;20091;-79
2022/06/19 09:40:52;;;;;;;22.45;7.55;;;;;;;28.76;50.22;98010.31;5021267;28;20025;-79
2022/06/19 09:43:31;;;;;;;20.73;6.78;;;;;;;28.73;50.39;98013.81;5020313;28;20875;-79
2022/06/19 09:46:05;;;;;;;33.42;8.18;;;;;;;28.58;50.84;98007.50;5023702;28;20432;-79
2022/06/19 09:48:58;;;;;;;19.80;7.22;;;;;;;28.82;50.06;98022.47;5036625;28;20026;-78
2022/06/19 09:51:35;;;;;;;20.00;7.50;;;;;;;28.90;50.10;98022.13;5023199;28;20484;-78
2022/06/19 09:54:10;;;;;;;21.80;7.05;;;;;;;28.82;50.69;98039.75;5024428;28;20032;-77
2022/06/19 09:56:50;;;;;;;13.05;6.53;;;;;;;28.94;51.63;98027.63;5026096;28;20067;-78
2022/06/19 09:59:38;;;;;;;16.92;7.78;;;;;;;28.87;53.19;98030.34;5030795;28;20030;-79
2022/06/19 10:02:31;;;;;;;19.95;6.85;;;;;;;28.70;54.59;98018.13;5024457;28;20034;-78
2022/06/19 10:05:04;;;;;;;43.63;9.32;;;;;;;28.57;53.11;98025.13;5004190;28;20072;-77
2022/06/19 10:07:37;;;;;;;21.85;7.50;;;;;;;28.74;53.62;98031.88;5025354;28;20033;-77
2022/06/19 10:10:22;;;;;;;8.90;5.72;;;;;;;28.49;53.12;98037.25;5026567;28;20424;-77
2022/06/19 10:12:51;;;;;;;13.45;6.45;;;;;;;28.58;54.80;98032.22;5024356;28;20493;-77
2022/06/19 10:15:22;;;;;;;11.00;5.38;;;;;;;28.48;53.42;98041.19;5006884;28;20041;-78
2022/06/19 10:17:57;;;;;;;118.32;13.82;;;;;;;28.14;53.35;98026.88;5022082;28;20033;-78
2022/06/19 10:21:09;;;;;;;47.67;7.70;;;;;;;27.85;54.26;98033.31;5034550;28;20021;-78
2022/06/19 10:23:46;;;;;;;74.38;10.75;;;;;;;27.89;54.83;98053.31;5012783;28;20049;-78
2022/06/19 10:26:30;;;;;;;18.65;6.15;;;;;;;27.74;54.08;98076.34;5023391;28;20025;-77
2022/06/19 10:29:17;;;;;;;16.67;5.30;;;;;;;28.11;53.25;98079.78;5027239;28;20105;-78
2022/06/19 10:32:08;;;;;;;13.52;4.50;;;;;;;28.62;52.17;98076.16;5024957;28;20071;-77
2022/06/19 10:35:15;;;;;;;13.02;4.60;;;;;;;28.77;52.05;98088.78;5026687;28;20029;-77
2022/06/19 10:37:56;;;;;;;13.70;5.97;;;;;;;28.91;51.24;98102.59;5041892;28;20633;-77
2022/06/19 10:40:33;;;;;;;13.57;4.57;;;;;;;28.77;51.43;98083.28;5027610;28;20389;-78
2022/06/19 10:43:20;;;;;;;11.90;5.45;;;;;;;28.99;51.03;98106.13;5022066;28;20104;-78
2022/06/19 10:45:54;;;;;;;13.90;4.68;;;;;;;28.94;51.08;98121.84;5029500;28;20060;-77
2022/06/19 10:48:26;;;;;;;15.35;4.82;;;;;;;28.81;49.98;98111.59;5038739;28;20025;-77
2022/06/19 10:51:03;;;;;;;11.75;4.88;;;;;;;28.85;50.55;98113.16;5028145;28;20021;-77
2022/06/19 10:53:46;;;;;;;14.75;5.80;;;;;;;28.95;50.58;98125.38;5026647;28;20033;-77
2022/06/19 10:56:27;;;;;;;15.40;4.97;;;;;;;28.83;50.31;98125.72;5045306;28;20034;-77
2022/06/19 10:58:53;;;;;;;12.57;5.18;;;;;;;28.99;49.81;98108.88;5025592;28;20408;-77
2022/06/19 11:04:11;;;;;;;13.32;4.78;;;;;;;28.87;50.03;98110.03;5027036;28;20067;-77
2022/06/19 11:06:47;;;;;;;9.00;4.75;;;;;;;28.52;50.28;98110.63;5027482;28;20844;-77
2022/06/19 11:09:18;;;;;;;;;;;;;;;28.55;50.33;98104.34;5028465;28;20051;-77
2022/06/19 11:11:46;;;;;;;17.73;5.82;;;;;;;28.35;50.14;98113.28;5023433;28;20383;-77
2022/06/19 11:14:38;;;;;;;13.82;6.43;;;;;;;28.24;50.51;98106.94;5028813;28;20033;-77
2022/06/19 11:17:06;;;;;;;14.27;5.55;;;;;;;28.31;49.56;98087.75;5025326;28;20050;-77
2022/06/19 11:19:36;;;;;;;14.88;5.85;;;;;;;28.09;49.93;98098.59;5027613;28;20072;-77
2022/06/19 11:22:05;;;;;;;11.90;5.38;;;;;;;28.51;49.34;98086.28;5028748;28;20045;-78
2022/06/19 11:24:33;;;;;;;17.92;6.03;;;;;;;28.60;49.50;98090.28;5024141;28;20793;-77
2022/06/19 11:26:59;;;;;;;11.18;4.78;;;;;;;28.86;49.66;98091.97;5025932;28;20461;-78
2022/06/19 11:29:26;;;;;;;12.43;5.18;;;;;;;29.01;48.55;98098.31;5036354;28;20033;-77
2022/06/19 11:32:04;;;;;;;12.15;5.20;;;;;;;28.85;49.11;98112.38;5026670;28;20029;-78
2022/06/19 11:34:51;;;;;;;10.73;5.25;;;;;;;28.73;49.18;98124.50;5043810;28;20481;-77
2022/06/19 11:37:22;;;;;;;14.35;5.13;;;;;;;28.43;48.62;98129.41;5024279;28;20032;-78
2022/06/19 11:39:57;;;;;;;11.82;4.75;;;;;;;28.85;47.86;98113.16;5040847;28;20397;-78
2022/06/19 11:42:31;;;;;;;11.98;5.10;;;;;;;27.89;50.00;98121.91;5025873;28;20022;-78
2022/06/19 11:45:29;;;;;;;12.90;5.75;;;;;;;29.11;48.64;98117.59;5031382;28;20140;-78
2022/06/19 11:47:54;;;;;;;12.68;5.07;;;;;;;29.36;48.06;98120.41;5015074;28;20033;-78